Latest Weather Observations for Moruya Airport

IDN60801

Issued at 2:22 pm EDT Monday 18 November 2019 (issued every 10 minutes, with the page automatically refreshed every 10 minutes)

About weather observations | Map of weather stations | Latest weather observations for NSW | Other Formats
Station Details ID: 069148 Name: MORUYA AIRPORT AWS Lat: -35.90 Lon: 150.14 Height: 4.0 m
Data from the previous 72 hours. | See also: Recent months at Moruya Airport
Date/Time
EDT
Temp
°C
App
Temp
°C
Dew
Point
°C
Rel
Hum
%
Delta-T
°C
Wind Press
QNH
hPa
Press
MSL
hPa
Rain since
9am
mm
Dir  Spd
km/h
Gust
km/h
Spd
kts
Gust
kts
18/02:00pm 21.0 17.2 14.6 67 3.7 NE 28 39 15 21 1011.8 1011.7 0.0
18/01:30pm 21.1 17.7 14.7 67 3.8 NE 26 35 14 19 1012.4 1012.3 0.0
18/01:00pm 21.2 18.0 15.3 69 3.5 NE 26 39 14 21 1012.9 1012.8 0.0
18/12:30pm 20.7 17.0 13.9 65 3.9 NE 26 33 14 18 1013.6 1013.5 0.0
18/12:00pm 20.6 16.9 13.8 65 3.9 NE 26 33 14 18 1014.0 1013.9 0.0
18/11:30am 20.0 15.5 13.7 67 3.6 NE 30 37 16 20 1014.7 1014.6 0.0
18/11:00am 20.0 15.8 13.5 66 3.7 NE 28 35 15 19 1015.3 1015.2 0.0
18/10:30am 19.7 15.4 13.2 66 3.7 NE 28 32 15 17 1015.7 1015.6 0.0
18/10:00am 20.3 17.9 12.8 62 4.2 NE 17 26 9 14 1016.0 1015.9 0.0
18/09:30am 19.1 15.6 10.1 56 4.8 NNE 19 28 10 15 1016.5 1016.4 0.0
18/09:00am 18.4 15.1 11.0 62 4.0 N 19 28 10 15 1016.9 1016.8 1.2
18/08:30am 17.0 14.7 11.7 71 2.9 N 15 22 8 12 1017.2 1017.1 1.2
18/08:00am 15.4 13.5 11.8 79 1.9 N 13 19 7 10 1017.5 1017.4 1.2
18/07:30am 12.9 11.4 11.8 93 0.6 N 11 15 6 8 1017.5 1017.4 1.2
18/07:00am 11.4 10.3 10.8 96 0.3 NW 7 9 4 5 1017.8 1017.7 1.2
18/06:30am 9.9 8.4 9.1 95 0.4 NW 7 9 4 5 1017.7 1017.6 1.2
18/06:00am 9.8 7.9 9.0 95 0.4 NW 9 11 5 6 1017.6 1017.5 1.2
18/05:30am 10.2 8.7 9.3 94 0.4 NW 7 9 4 5 1017.4 1017.3 1.2
18/05:00am 10.6 9.2 9.7 94 0.5 NW 7 9 4 5 1017.3 1017.2 1.2
18/04:30am 11.3 11.4 10.2 93 0.6 CALM 0 0 0 0 1017.8 1017.7 1.2
18/04:00am 11.7 11.1 10.3 91 0.7 NNW 4 7 2 4 1018.1 1018.0 1.2
18/03:30am 12.7 13.1 11.3 91 0.7 CALM 0 0 0 0 1018.6 1018.5 1.2
18/03:00am 12.9 13.4 11.5 91 0.7 CALM 0 6 0 3 1018.8 1018.7 1.2
18/02:30am 12.9 12.2 11.5 91 0.7 WNW 6 7 3 4 1019.4 1019.3 1.2
18/02:00am 13.0 12.4 11.7 92 0.7 NW 6 7 3 4 1019.6 1019.5 1.2
18/01:30am 13.0 12.4 11.7 92 0.7 W 6 7 3 4 1020.1 1020.0 1.0
18/01:00am 13.0 13.5 11.7 92 0.7 CALM 0 0 0 0 1020.2 1020.1 1.0
18/12:30am 13.1 13.7 11.8 92 0.7 CALM 0 0 0 0 1020.9 1020.8 1.0
18/12:00am 13.1 13.7 11.8 92 0.7 CALM 0 6 0 3 1021.3 1021.2 1.0
 
Date/Time
EDT
Temp
°C
App
Temp
°C
Dew
Point
°C
Rel
Hum
%
Delta-T
°C
Wind Press
QNH
hPa
Press
MSL
hPa
Rain since
9am
mm
Dir  Spd
km/h
Gust
km/h
Spd
kts
Gust
kts
17/11:30pm 13.1 13.7 11.8 92 0.7 CALM 0 0 0 0 1021.5 1021.4 1.0
17/11:00pm 13.1 12.5 11.8 92 0.7 NW 6 7 3 4 1021.5 1021.4 1.0
17/10:30pm 13.2 12.6 11.8 91 0.7 NW 6 6 3 3 1021.8 1021.7 1.0
17/10:00pm 13.3 13.0 11.5 89 1.0 NNW 4 7 2 4 1021.7 1021.6 1.0
17/09:31pm 13.8 12.8 11.1 84 1.4 W 7 9 4 5 1021.7 1021.6 0.8
17/09:30pm 13.8 12.8 11.1 84 1.4 W 7 11 4 6 1021.7 1021.6 0.8
17/09:14pm 14.5 13.0 10.7 78 2.0 SW 9 13 5 7 1021.5 1021.4 0.4
17/09:00pm 15.3 12.9 10.1 71 2.7 S 13 17 7 9 1021.3 1021.2 0.0
17/08:30pm 15.6 13.0 9.5 67 3.2 ESE 13 20 7 11 1020.8 1020.7 0.0
17/08:00pm 16.0 13.0 9.4 65 3.4 ESE 15 20 8 11 1020.3 1020.2 0.0
17/07:30pm 16.1 12.8 9.5 65 3.4 ESE 17 20 9 11 1019.9 1019.8 0.0
17/07:00pm 16.2 13.7 9.6 65 3.4 SE 13 20 7 11 1019.5 1019.4 0.0
17/06:30pm 16.5 13.3 9.9 65 3.5 SE 17 22 9 12 1018.8 1018.7 0.0
17/06:00pm 16.6 13.7 9.5 63 3.7 SE 15 24 8 13 1018.6 1018.5 0.0
17/05:30pm 16.9 13.6 9.6 62 3.8 SE 17 24 9 13 1018.5 1018.4 0.0
17/05:00pm 17.4 13.7 9.6 60 4.1 SE 19 24 10 13 1018.2 1018.1 0.0
17/04:30pm 17.4 13.6 9.8 61 4.0 SE 20 30 11 16 1017.7 1017.6 0.0
17/04:00pm 18.3 14.2 10.2 59 4.3 ESE 22 26 12 14 1017.4 1017.3 0.0
17/03:30pm 18.3 14.7 9.9 58 4.5 ESE 19 24 10 13 1017.1 1017.0 0.0
17/03:00pm 19.0 15.6 9.2 53 5.1 ESE 17 22 9 12 1017.1 1017.0 0.0
17/02:30pm 18.3 14.4 8.8 54 4.9 ESE 19 24 10 13 1017.1 1017.0 0.0
17/02:00pm 18.1 14.1 8.1 52 5.1 ESE 19 24 10 13 1017.5 1017.4 0.0
17/01:30pm 18.4 14.7 9.5 56 4.7 ESE 19 24 10 13 1017.5 1017.4 0.0
17/01:00pm 18.1 14.5 9.7 58 4.4 ESE 19 24 10 13 1017.6 1017.5 0.0
17/12:30pm 17.9 14.3 10.0 60 4.2 ESE 19 24 10 13 1017.5 1017.4 0.0
17/12:00pm 17.4 14.1 10.8 65 3.5 ESE 19 24 10 13 1017.6 1017.5 0.0
17/11:30am 16.8 13.6 11.1 69 3.1 SE 19 26 10 14 1017.9 1017.8 0.0
17/11:00am 15.8 12.5 10.8 72 2.7 SE 19 24 10 13 1017.9 1017.8 0.0
17/10:30am 15.8 12.6 11.4 75 2.4 SSE 19 26 10 14 1018.0 1017.9 0.0
17/10:11am 15.6 12.6 12.0 79 2.0 SSE 19 26 10 14 1018.0 1017.9 0.0
17/10:00am 15.6 12.7 12.9 84 1.5 SSE 20 28 11 15 1018.0 1017.9 0.0
17/09:38am 15.1 13.1 12.8 86 1.3 SE 15 20 8 11 1018.2 1018.1 0.0
17/09:30am 15.1 13.5 12.8 86 1.3 SE 13 20 7 11 1018.2 1018.1 0.0
17/09:00am 14.9 14.2 13.1 89 1.0 S 9 11 5 6 1018.3 1018.2 6.2
17/08:30am 14.7 14.3 13.1 90 0.9 WSW 7 9 4 5 1018.1 1018.0 5.4
17/08:00am 14.3 13.3 12.3 88 1.1 SE 9 20 5 11 1017.8 1017.7 5.2
17/07:30am 14.4 14.4 12.4 88 1.1 E 4 7 2 4 1017.6 1017.5 3.2
17/07:00am 14.8 13.1 12.3 85 1.4 ENE 13 20 7 11 1016.8 1016.7 2.0
17/06:40am 14.6 13.3 12.5 87 1.1 E 11 17 6 9 1016.3 1016.2 2.0
17/06:30am 13.8 13.3 12.5 92 0.7 NE 7 15 4 8 1016.3 1016.2 1.8
17/06:00am 13.4 12.3 12.1 92 0.7 NNW 9 13 5 7 1016.3 1016.2 1.0
17/05:58am 13.5 12.5 12.2 92 0.7 NNW 9 13 5 7 1016.3 1016.2 0.8
17/05:30am 13.4 13.3 12.1 92 0.7 S 4 6 2 3 1016.5 1016.4 0.4
17/05:00am 13.5 13.8 12.2 92 0.7 W 2 7 1 4 1016.3 1016.2 0.4
17/04:30am 13.5 12.9 12.2 92 0.7 W 7 11 4 6 1016.6 1016.5 0.4
17/04:00am 13.5 12.9 12.2 92 0.7 W 7 11 4 6 1016.6 1016.5 0.4
17/03:30am 13.7 14.0 12.3 91 0.8 NW 2 7 1 4 1016.4 1016.3 0.4
17/03:00am 13.8 13.2 12.2 90 0.9 WSW 7 9 4 5 1016.9 1016.8 0.4
17/02:30am 13.9 13.2 11.9 88 1.1 W 7 13 4 7 1017.1 1017.0 0.4
17/02:00am 14.5 13.3 11.5 82 1.6 WSW 9 13 5 7 1017.6 1017.5 0.0
17/01:30am 14.6 13.7 11.4 81 1.7 SSW 7 9 4 5 1017.1 1017.0 0.0
17/01:00am 14.6 13.7 11.2 80 1.8 SSW 7 9 4 5 1017.2 1017.1 0.0
17/12:30am 14.5 13.8 11.3 81 1.7 WSW 6 9 3 5 1017.7 1017.6 0.0
17/12:00am 14.5 14.2 11.3 81 1.7 WNW 4 7 2 4 1017.8 1017.7 0.0
 
Date/Time
EDT
Temp
°C
App
Temp
°C
Dew
Point
°C
Rel
Hum
%
Delta-T
°C
Wind Press
QNH
hPa
Press
MSL
hPa
Rain since
9am
mm
Dir  Spd
km/h
Gust
km/h
Spd
kts
Gust
kts
16/11:30pm 14.5 13.2 11.1 80 1.8 N 9 15 5 8 1017.1 1017.0 0.0
16/11:00pm 14.5 13.2 11.1 80 1.8 NNW 9 11 5 6 1017.7 1017.6 0.0
16/10:30pm 14.8 13.7 10.8 77 2.1 N 7 9 4 5 1017.6 1017.5 0.0
16/10:00pm 14.8 13.9 10.6 76 2.2 NNW 6 7 3 4 1017.3 1017.2 0.0
16/09:30pm 15.1 14.2 10.7 75 2.3 NNW 6 9 3 5 1017.6 1017.5 0.0
16/09:00pm 15.3 14.1 10.3 72 2.6 N 7 11 4 6 1017.5 1017.4 0.0
16/08:30pm 15.5 14.0 10.5 72 2.6 NNE 9 13 5 7 1017.2 1017.1 0.0
16/08:00pm 15.8 13.8 10.1 69 3.0 NNE 11 15 6 8 1017.2 1017.1 0.0
16/07:30pm 15.8 13.7 9.9 68 3.1 NNE 11 17 6 9 1017.0 1016.9 0.0
16/07:00pm 16.1 13.7 10.0 67 3.2 NE 13 19 7 10 1016.4 1016.3 0.0
16/06:30pm 16.3 13.9 9.9 66 3.4 NE 13 19 7 10 1016.0 1015.9 0.0
16/06:00pm 16.5 13.2 9.7 64 3.5 ENE 17 24 9 13 1015.7 1015.6 0.0
16/05:30pm 16.6 13.4 9.8 64 3.6 ENE 17 24 9 13 1015.4 1015.3 0.0
16/05:00pm 16.6 12.9 9.5 63 3.7 NE 19 24 10 13 1015.3 1015.2 0.0
16/04:30pm 17.0 13.2 9.7 62 3.8 ENE 20 24 11 13 1015.4 1015.3 0.0
16/04:00pm 17.3 12.5 9.0 58 4.3 NE 24 30 13 16 1015.0 1014.9 0.0
16/03:30pm 17.6 13.3 9.5 59 4.2 ENE 22 28 12 15 1015.1 1015.0 0.0
16/03:00pm 17.5 12.4 9.2 58 4.3 ENE 26 30 14 16 1015.1 1015.0 0.0
16/02:30pm 18.0 13.7 9.4 57 4.5 ENE 22 28 12 15 1015.3 1015.2 0.0
16/02:00pm 18.4 13.8 9.7 57 4.6 ENE 24 28 13 15 1015.5 1015.4 0.0
16/01:30pm 18.1 12.9 8.9 55 4.8 ENE 26 33 14 18 1015.5 1015.4 0.0
16/01:00pm 18.2 13.2 9.5 57 4.6 ENE 26 33 14 18 1015.7 1015.6 0.0
16/12:30pm 18.7 13.7 9.5 55 4.9 ENE 26 32 14 17 1015.8 1015.7 0.0
16/12:00pm 18.1 13.8 9.5 57 4.5 ENE 22 28 12 15 1016.0 1015.9 0.0
16/11:30am 18.7 14.7 9.2 54 5.0 ENE 20 28 11 15 1016.1 1016.0 0.0
16/11:00am 18.8 15.1 9.3 54 5.0 ENE 19 24 10 13 1016.4 1016.3 0.0
16/10:30am 18.1 15.0 8.7 54 4.9 E 15 20 8 11 1016.6 1016.5 0.0
16/10:00am 17.7 14.5 8.3 54 4.8 E 15 20 8 11 1016.6 1016.5 0.0
16/09:30am 17.2 14.1 8.9 58 4.3 ESE 15 19 8 10 1016.4 1016.3 0.0
16/09:00am 16.6 13.7 8.1 57 4.3 ESE 13 17 7 9 1016.3 1016.2 0.0
16/08:30am 16.4 13.6 8.4 59 4.1 ESE 13 17 7 9 1016.0 1015.9 0.0
16/08:00am 16.6 13.9 8.8 60 4.0 ESE 13 17 7 9 1015.8 1015.7 0.0
16/07:30am 15.8 14.3 9.0 64 3.5 SSE 7 11 4 6 1015.6 1015.5 0.0
16/07:00am 15.8 13.4 8.8 63 3.6 SE 11 17 6 9 1015.1 1015.0 0.0
16/06:30am 15.7 14.0 9.8 68 3.1 SE 9 13 5 7 1014.9 1014.8 0.0
16/06:00am 15.5 13.5 10.3 71 2.7 SSE 11 17 6 9 1014.6 1014.5 0.0
16/05:30am 15.8 14.3 10.6 71 2.8 ESE 9 11 5 6 1014.0 1013.9 0.0
16/05:00am 15.8 14.7 10.6 71 2.8 SE 7 13 4 7 1013.7 1013.6 0.0
16/04:30am 15.9 14.4 10.7 71 2.8 ESE 9 15 5 8 1013.5 1013.4 0.0
16/04:00am 15.9 14.1 10.9 72 2.7 SE 11 15 6 8 1013.3 1013.2 0.0
16/03:30am 15.7 14.7 10.9 73 2.6 SE 7 15 4 8 1013.1 1013.0 0.0
16/03:00am 15.7 13.6 11.1 74 2.5 SE 13 20 7 11 1013.2 1013.1 0.0
16/02:30am 15.7 12.5 11.1 74 2.5 SE 19 24 10 13 1013.3 1013.2 0.0
16/02:00am 15.5 12.2 11.5 77 2.2 SSE 20 28 11 15 1013.4 1013.3 0.0
16/01:30am 16.9 15.4 12.0 73 2.7 SE 11 19 6 10 1013.4 1013.3 0.0
16/01:00am 17.0 15.1 11.9 72 2.8 SE 13 17 7 9 1013.3 1013.2 0.0
16/12:30am 16.8 14.6 12.1 74 2.6 SE 15 22 8 12 1013.3 1013.2 0.0
16/12:00am 17.0 15.3 12.5 75 2.5 SE 13 17 7 9 1013.3 1013.2 0.0
 
Date/Time
EDT
Temp
°C
App
Temp
°C
Dew
Point
°C
Rel
Hum
%
Delta-T
°C
Wind Press
QNH
hPa
Press
MSL
hPa
Rain since
9am
mm
Dir  Spd
km/h
Gust
km/h
Spd
kts
Gust
kts
15/11:30pm 16.1 16.3 11.9 76 2.3 W 2 6 1 3 1013.1 1013.0 0.0
15/11:00pm 15.7 16.2 11.5 76 2.3 CALM 0 0 0 0 1012.8 1012.7 0.0
15/10:30pm 15.6 14.9 11.4 76 2.3 W 6 7 3 4 1012.8 1012.7 0.0
15/10:00pm 15.9 15.1 10.9 72 2.7 SW 6 9 3 5 1012.6 1012.5 0.0
15/09:30pm 16.8 15.1 11.3 70 3.0 S 11 15 6 8 1012.1 1012.0 0.0
15/09:00pm 17.3 15.2 11.3 68 3.3 SSE 13 19 7 10 1011.7 1011.6 0.0
15/08:30pm 17.5 14.7 11.3 67 3.4 SSE 17 22 9 12 1011.2 1011.1 0.0
15/08:00pm 17.5 14.8 11.8 69 3.1 SSE 17 24 9 13 1010.6 1010.5 0.0
15/07:30pm 17.6 14.4 11.9 69 3.1 S 20 28 11 15 1010.1 1010.0 0.0
15/07:00pm 17.8 14.1 11.6 67 3.4 S 22 33 12 18 1009.3 1009.2 0.0
15/06:30pm 17.8 13.4 11.8 68 3.3 SSE 26 37 14 20 1008.4 1008.3 0.0
15/06:00pm 17.9 13.0 12.4 70 3.1 SSE 30 44 16 24 1007.7 1007.6 0.0
15/05:36pm 18.2 12.6 13.3 73 2.8 SSE 35 50 19 27 1007.1 1007.0 0.0
15/05:30pm 18.5 13.9 13.6 73 2.8 S 30 43 16 23 1007.0 1006.9 0.0
15/05:05pm 19.1 14.4 14.4 74 2.7 SSE 32 41 17 22 1006.4 1006.3 0.0
15/05:00pm 19.1 14.4 14.4 74 2.7 SSE 32 44 17 24 1006.3 1006.2 0.0
15/04:30pm 20.1 14.4 15.3 74 2.8 SSE 39 56 21 30 1005.6 1005.5 0.0
15/04:15pm 20.5 16.2 15.5 73 3.0 SSE 32 50 17 27 1005.3 1005.2 0.0
15/04:00pm 20.4 14.8 15.4 73 3.0 S 39 50 21 27 1005.1 1005.0 0.0
15/03:44pm 21.1 15.8 15.4 70 3.4 SSE 37 57 20 31 1004.9 1004.8 0.0
15/03:30pm 21.6 16.8 15.7 69 3.5 SSE 35 46 19 25 1004.7 1004.6 0.0
15/03:15pm 21.8 18.0 14.7 64 4.2 SSE 28 39 15 21 1004.6 1004.5 0.0
15/03:00pm 22.9 20.2 11.6 49 6.4 E 17 20 9 11 1004.3 1004.2 0.0
15/02:30pm 23.1 20.4 13.0 53 5.8 ENE 19 26 10 14 1004.2 1004.1 0.0

Other formats

Comma delimited format used in spreadsheet applications
http://www.bom.gov.au/fwo/IDN60801/IDN60801.95937.axf

JavaScript Object Notation format (JSON) in row-major order
http://www.bom.gov.au/fwo/IDN60801/IDN60801.95937.json

Data quality

Most of these data are generated automatically and are frequently updated. Quality checks on data are not normally performed. It is possible for incorrect values to appear. Refer to information at About Latest Weather Observations and please check the disclaimer before using these data.